Time;durP1;ratioP1;P1;durP2;ratioP2;P2;SDS_P1;SDS_P2;PMS_P1;PMS_P2;Temp;Humidity;BMP_temperature;BMP_pressure;BME280_temperature;BME280_humidity;BME280_pressure;Samples;Min_cycle;Max_cycle;Signal;HPM_P1;HPM_P2
2021/07/21 00:00:40;;;;;;;7.70;5.32;;;;;;;16.27;66.11;100963.53;4964519;28;20130;-80
2021/07/21 00:03:07;;;;;;;7.93;5.07;;;;;;;16.21;66.24;100967.47;4961981;28;20071;-80
2021/07/21 00:05:36;;;;;;;7.60;4.93;;;;;;;16.18;66.41;100962.31;4958775;28;20107;-82
2021/07/21 00:08:03;;;;;;;8.45;5.30;;;;;;;16.15;66.70;100967.81;4965884;28;20113;-81
2021/07/21 00:10:31;;;;;;;9.40;5.20;;;;;;;16.19;66.93;100968.50;4963040;29;20142;-81
2021/07/21 00:16:04;;;;;;;7.68;5.35;;;;;;;16.16;66.70;100963.34;4964141;28;20054;-82
2021/07/21 00:18:57;;;;;;;7.32;5.10;;;;;;;16.11;66.75;100966.28;4962218;29;20604;-81
2021/07/21 00:21:26;;;;;;;7.63;5.07;;;;;;;16.05;67.18;100967.53;4974729;28;20086;-80
2021/07/21 00:23:53;;;;;;;10.45;5.45;;;;;;;16.05;67.00;100964.00;4963537;29;20467;-80
2021/07/21 00:26:19;;;;;;;7.50;4.90;;;;;;;16.01;67.16;100959.78;4929070;29;20058;-81
2021/07/21 00:28:46;;;;;;;7.57;5.07;;;;;;;16.00;66.96;100966.94;4958609;28;20043;-81
2021/07/21 00:31:15;;;;;;;8.02;5.03;;;;;;;15.99;67.10;100964.38;4956035;29;20118;-81
2021/07/21 00:33:45;;;;;;;6.65;4.90;;;;;;;16.00;66.86;100966.94;4955404;29;20047;-81
2021/07/21 00:36:14;;;;;;;8.57;4.78;;;;;;;16.00;67.29;100961.59;4961271;29;20059;-81
2021/07/21 00:38:41;;;;;;;6.13;4.75;;;;;;;16.00;67.02;100955.41;4966627;28;20111;-81
2021/07/21 00:41:07;;;;;;;5.85;4.70;;;;;;;16.02;67.23;100957.03;4963835;28;20054;-81
2021/07/21 00:43:37;;;;;;;8.32;4.60;;;;;;;16.03;66.96;100955.22;4963791;28;20031;-81
2021/07/21 00:46:08;;;;;;;6.78;4.82;;;;;;;16.02;66.61;100953.50;4964085;29;20090;-81
2021/07/21 00:48:35;;;;;;;7.43;4.88;;;;;;;16.02;66.81;100950.81;4977673;28;20620;-80
2021/07/21 00:51:02;;;;;;;8.93;5.13;;;;;;;16.02;67.09;100958.84;4966503;28;20126;-80
2021/07/21 00:53:33;;;;;;;7.15;4.43;;;;;;;16.02;66.99;100959.69;4965934;28;20063;-81
2021/07/21 00:56:01;;;;;;;9.90;4.80;;;;;;;16.03;66.86;100955.22;4956333;29;20051;-81
2021/07/21 00:58:28;;;;;;;7.88;4.70;;;;;;;16.01;66.47;100959.78;4974289;28;20087;-81
2021/07/21 01:00:57;;;;;;;8.15;4.70;;;;;;;15.95;66.58;100957.47;4976066;28;20106;-80
2021/07/21 01:03:24;;;;;;;8.35;4.78;;;;;;;15.93;66.62;100954.03;4986390;28;20051;-80
2021/07/21 01:05:53;;;;;;;7.70;4.63;;;;;;;15.90;67.18;100955.06;4979074;28;20074;-80
2021/07/21 01:08:21;;;;;;;6.38;4.32;;;;;;;15.90;66.50;100964.94;4986036;28;20047;-80
2021/07/21 01:11:20;;;;;;;6.75;5.13;;;;;;;15.86;67.13;100958.91;4982195;28;20055;-81
2021/07/21 01:13:59;;;;;;;14.23;5.35;;;;;;;15.86;67.09;100963.38;4968020;28;20031;-81
2021/07/21 01:16:33;;;;;;;14.23;5.25;;;;;;;15.88;67.31;100966.84;4997343;28;20119;-81
2021/07/21 01:19:06;;;;;;;13.90;5.22;;;;;;;15.88;67.24;100964.16;4968064;28;20074;-81
2021/07/21 01:22:09;;;;;;;6.90;4.57;;;;;;;15.84;67.39;100960.81;4965174;29;20055;-81
2021/07/21 01:24:47;;;;;;;8.43;5.10;;;;;;;15.82;67.26;100959.16;4947956;29;20061;-83
2021/07/21 01:27:22;;;;;;;8.65;4.95;;;;;;;15.75;67.55;100956.84;4970173;28;20112;-81
2021/07/21 01:29:55;;;;;;;7.57;5.05;;;;;;;15.72;67.54;100957.06;4978452;28;20119;-81
2021/07/21 01:32:26;;;;;;;5.93;4.63;;;;;;;15.70;67.15;100960.75;4971400;29;20087;-81
2021/07/21 01:34:59;;;;;;;7.47;5.20;;;;;;;15.65;67.77;100955.69;4968877;28;20051;-81
2021/07/21 01:37:31;;;;;;;8.50;5.00;;;;;;;15.63;67.65;100954.91;4986005;28;20050;-81
2021/07/21 01:40:05;;;;;;;7.70;5.28;;;;;;;15.57;67.94;100949.09;4965818;28;20062;-81
2021/07/21 01:42:34;;;;;;;6.80;4.90;;;;;;;15.52;68.23;100954.66;4962250;29;20082;-81
2021/07/21 01:45:06;;;;;;;7.43;5.23;;;;;;;15.48;68.41;100958.44;4970638;28;20055;-81
2021/07/21 01:47:33;;;;;;;6.53;4.95;;;;;;;15.43;68.71;100950.69;4968585;28;20822;-81
2021/07/21 01:50:05;;;;;;;10.18;5.22;;;;;;;15.42;68.68;100950.81;4971362;28;20094;-81
2021/07/21 01:52:32;;;;;;;7.35;5.03;;;;;;;15.44;69.06;100956.91;4963112;29;20048;-80
2021/07/21 01:55:05;;;;;;;6.50;4.82;;;;;;;15.43;68.64;100947.19;4962540;28;20054;-80
2021/07/21 01:57:33;;;;;;;9.32;5.65;;;;;;;15.45;68.98;100954.16;4966937;29;20077;-80
2021/07/21 02:00:05;;;;;;;7.18;5.18;;;;;;;15.45;69.16;100950.63;4973523;28;20027;-80
2021/07/21 02:02:33;;;;;;;8.52;4.75;;;;;;;15.45;69.39;100943.47;4988038;28;20031;-80
2021/07/21 02:05:01;;;;;;;6.68;4.78;;;;;;;15.44;69.64;100949.75;4977299;28;20066;-81
2021/07/21 02:07:30;;;;;;;9.65;5.50;;;;;;;15.44;69.07;100947.09;4978198;28;20054;-81
2021/07/21 02:10:00;;;;;;;8.25;5.05;;;;;;;15.45;68.88;100950.63;4977111;28;20066;-81
2021/07/21 02:12:35;;;;;;;9.43;5.32;;;;;;;15.41;69.24;100947.28;4964152;29;20047;-80
2021/07/21 02:15:05;;;;;;;8.20;4.70;;;;;;;15.40;69.44;100942.91;4977625;28;20102;-80
2021/07/21 02:17:32;;;;;;;9.68;5.15;;;;;;;15.38;69.65;100939.47;4979510;28;20098;-81
2021/07/21 02:20:01;;;;;;;9.45;5.63;;;;;;;15.37;69.51;100947.56;4982202;28;20058;-81
2021/07/21 02:22:28;;;;;;;6.75;5.22;;;;;;;15.35;69.25;100941.44;4978810;28;20054;-81
2021/07/21 02:24:56;;;;;;;9.75;4.97;;;;;;;15.33;69.17;100941.53;4976833;28;20137;-81
2021/07/21 02:27:25;;;;;;;7.22;4.75;;;;;;;15.31;69.37;100946.09;4965430;28;20079;-81
2021/07/21 02:29:53;;;;;;;9.80;5.35;;;;;;;15.28;69.79;100945.41;4961430;28;20123;-81
2021/07/21 02:32:35;;;;;;;8.43;4.85;;;;;;;15.28;69.39;100950.72;4960133;28;20051;-80
2021/07/21 02:35:03;;;;;;;8.80;5.15;;;;;;;15.27;69.58;100954.34;4960845;29;20490;-81
2021/07/21 02:37:31;;;;;;;8.45;5.00;;;;;;;15.22;69.58;100953.78;4964837;28;20058;-81
2021/07/21 02:39:57;;;;;;;8.75;5.28;;;;;;;15.17;69.49;100954.03;4965059;28;20053;-81
2021/07/21 02:42:24;;;;;;;6.63;4.78;;;;;;;15.14;70.11;100953.34;4955594;29;20051;-81
2021/07/21 02:44:52;;;;;;;7.28;5.47;;;;;;;15.13;69.99;100962.28;4963775;28;20106;-81
2021/07/21 02:47:20;;;;;;;8.02;4.85;;;;;;;15.07;70.22;100956.38;4960529;28;20055;-81
2021/07/21 02:49:50;;;;;;;9.05;5.35;;;;;;;15.07;70.24;100956.38;4954106;28;20115;-81
2021/07/21 02:52:40;;;;;;;8.60;4.82;;;;;;;15.06;70.33;100951.13;4963240;29;20251;-81
2021/07/21 02:55:18;;;;;;;10.27;5.53;;;;;;;15.03;70.91;100945.94;4963109;29;20058;-81
2021/07/21 02:57:54;;;;;;;7.75;5.15;;;;;;;14.99;71.08;100939.06;4955198;29;20058;-81
2021/07/21 03:00:26;;;;;;;6.38;4.68;;;;;;;14.98;71.13;100954.19;4958183;28;20075;-80
2021/07/21 03:02:53;;;;;;;8.13;5.15;;;;;;;14.98;70.95;100948.88;4969408;28;20368;-81
2021/07/21 03:05:25;;;;;;;7.32;4.70;;;;;;;14.96;70.63;100944.56;4965067;28;20043;-81
2021/07/21 03:07:58;;;;;;;6.22;5.05;;;;;;;14.96;70.98;100944.56;4976087;28;20115;-80
2021/07/21 03:10:26;;;;;;;7.05;5.10;;;;;;;14.94;71.02;100944.69;4977830;28;20050;-80
2021/07/21 03:13:05;;;;;;;9.32;5.38;;;;;;;14.93;71.42;100944.75;4977798;28;20039;-80
2021/07/21 03:15:35;;;;;;;7.53;5.18;;;;;;;14.88;71.24;100945.00;4963713;28;20111;-80
2021/07/21 03:18:04;;;;;;;7.80;5.55;;;;;;;14.88;71.26;100955.69;4946127;29;20138;-80
2021/07/21 03:20:31;;;;;;;8.57;5.50;;;;;;;14.84;71.48;100956.78;4956483;28;20039;-80
2021/07/21 03:23:01;;;;;;;7.88;5.60;;;;;;;14.82;71.74;100973.81;4957086;29;20064;-80
2021/07/21 03:25:28;;;;;;;9.75;5.45;;;;;;;14.77;71.93;100975.88;4968694;29;20106;-80
2021/07/21 03:27:57;;;;;;;9.27;5.88;;;;;;;14.74;72.07;100979.59;4949635;29;20055;-80
2021/07/21 03:30:26;;;;;;;7.57;5.65;;;;;;;14.71;71.90;100979.75;4977295;29;20094;-80
2021/07/21 03:32:54;;;;;;;10.40;5.97;;;;;;;14.61;72.01;100976.72;4961091;29;20062;-80
2021/07/21 03:35:26;;;;;;;10.02;5.97;;;;;;;14.57;72.38;100974.31;4968409;28;20048;-80
2021/07/21 03:37:54;;;;;;;9.95;6.20;;;;;;;14.52;72.89;100971.03;4957795;29;20066;-80
2021/07/21 03:40:24;;;;;;;7.95;5.38;;;;;;;14.48;73.17;100985.47;4956127;29;20063;-80
2021/07/21 03:42:53;;;;;;;7.70;5.75;;;;;;;14.48;72.86;100988.13;4948080;29;20090;-81
2021/07/21 03:45:23;;;;;;;8.98;5.28;;;;;;;14.49;73.71;100987.16;4956523;29;20488;-81
2021/07/21 03:47:51;;;;;;;9.00;5.43;;;;;;;14.51;73.19;100979.97;4963223;28;20110;-80
2021/07/21 03:50:23;;;;;;;8.30;5.60;;;;;;;14.49;73.54;100981.84;4945903;29;20062;-81
2021/07/21 03:52:51;;;;;;;10.02;5.63;;;;;;;14.49;73.65;100982.69;4963917;28;20558;-81
2021/07/21 03:55:20;;;;;;;10.23;5.68;;;;;;;14.49;73.60;100977.38;4962911;28;20562;-80
2021/07/21 03:57:47;;;;;;;9.05;5.57;;;;;;;14.50;73.90;100978.22;4963314;28;20130;-81
2021/07/21 04:00:16;;;;;;;10.23;5.55;;;;;;;14.53;73.90;100978.06;4967441;28;20234;-81
2021/07/21 04:02:46;;;;;;;9.95;5.43;;;;;;;14.56;73.55;100977.91;4975034;28;20050;-80
2021/07/21 04:05:15;;;;;;;9.85;5.65;;;;;;;14.56;73.06;100980.56;4979721;28;20031;-79
2021/07/21 04:07:44;;;;;;;8.85;5.70;;;;;;;14.58;72.90;100984.03;4976789;28;20047;-80
2021/07/21 04:10:16;;;;;;;8.73;5.47;;;;;;;14.61;73.16;100983.88;4974259;29;20035;-80
2021/07/21 04:12:49;;;;;;;8.88;5.68;;;;;;;14.64;73.36;100991.66;4968849;29;20047;-80
2021/07/21 04:15:19;;;;;;;8.10;5.35;;;;;;;14.65;73.25;100986.25;4966272;29;20047;-80
2021/07/21 04:17:46;;;;;;;11.32;5.22;;;;;;;14.66;73.27;100984.44;4963187;29;20039;-80
2021/07/21 04:20:14;;;;;;;8.82;5.43;;;;;;;14.71;73.04;100995.75;4962721;29;20090;-81
2021/07/21 04:22:42;;;;;;;8.80;5.47;;;;;;;14.72;73.06;101000.13;4960914;28;20062;-80
2021/07/21 04:25:11;;;;;;;8.98;6.00;;;;;;;14.76;72.89;100995.50;4960526;29;20403;-79
2021/07/21 04:27:40;;;;;;;7.75;5.32;;;;;;;14.74;73.02;100993.78;4962224;28;20047;-80
2021/07/21 04:30:07;;;;;;;9.07;5.40;;;;;;;14.79;72.67;100998.00;4961858;28;20057;-80
2021/07/21 04:32:35;;;;;;;6.53;5.18;;;;;;;14.87;72.86;101009.94;4963942;29;20047;-80
2021/07/21 04:35:05;;;;;;;8.80;5.75;;;;;;;14.92;72.66;101002.56;4961897;28;20103;-80
2021/07/21 04:37:35;;;;;;;6.38;5.20;;;;;;;14.97;72.12;101003.16;4960420;28;20047;-80
2021/07/21 04:40:03;;;;;;;8.65;5.68;;;;;;;15.03;72.05;100997.50;4960814;28;20066;-80
2021/07/21 04:42:32;;;;;;;6.90;5.68;;;;;;;15.06;71.60;101005.31;4965056;28;20050;-80
2021/07/21 04:44:58;;;;;;;7.55;5.35;;;;;;;15.11;71.48;100997.03;4984369;28;20053;-80
2021/07/21 04:47:26;;;;;;;7.57;5.35;;;;;;;15.12;71.40;101003.25;4970017;28;20051;-79
2021/07/21 04:49:54;;;;;;;9.57;5.80;;;;;;;15.16;70.96;100996.78;4979874;28;20130;-80
2021/07/21 04:52:28;;;;;;;9.77;5.88;;;;;;;15.08;71.18;101003.44;4972983;29;20055;-79
2021/07/21 04:55:01;;;;;;;9.05;5.68;;;;;;;15.14;71.23;101002.22;4973206;29;20071;-80
2021/07/21 04:57:30;;;;;;;8.05;5.68;;;;;;;15.13;70.94;101015.63;4971836;29;20047;-79
2021/07/21 04:59:56;;;;;;;11.57;6.07;;;;;;;15.17;71.40;101017.19;4973936;29;20051;-82
2021/07/21 05:02:24;;;;;;;10.65;5.80;;;;;;;15.19;71.39;101025.97;4970313;29;20555;-81
2021/07/21 05:04:53;;;;;;;8.38;5.43;;;;;;;15.22;71.37;101026.66;4968887;29;20047;-80
2021/07/21 05:07:19;;;;;;;8.35;5.47;;;;;;;15.25;71.47;101028.31;4968342;28;20062;-81
2021/07/21 05:09:46;;;;;;;11.68;5.28;;;;;;;15.28;70.98;101028.13;4969779;29;20142;-80
2021/07/21 05:12:14;;;;;;;10.05;5.43;;;;;;;15.31;71.00;101033.28;4976874;28;20114;-80
2021/07/21 05:14:45;;;;;;;7.80;5.50;;;;;;;15.34;69.84;101033.13;4976009;28;20087;-80
2021/07/21 05:17:12;;;;;;;8.80;5.13;;;;;;;15.29;70.82;101036.03;4976472;29;20245;-80
2021/07/21 05:19:39;;;;;;;8.45;5.90;;;;;;;15.28;70.73;101038.78;4975965;28;20649;-80
2021/07/21 05:22:05;;;;;;;8.48;5.63;;;;;;;15.30;70.63;101043.09;4970669;28;20123;-80
2021/07/21 05:24:34;;;;;;;10.35;5.60;;;;;;;15.35;70.47;101049.03;4976182;28;20062;-80
2021/07/21 05:27:01;;;;;;;8.38;6.18;;;;;;;15.42;70.34;101052.25;4978393;28;20043;-80
2021/07/21 05:29:27;;;;;;;7.10;5.55;;;;;;;15.43;69.63;101043.25;4952019;29;20055;-80
2021/07/21 05:31:55;;;;;;;10.68;5.90;;;;;;;15.47;69.84;101049.28;4971319;28;20038;-80
2021/07/21 05:34:22;;;;;;;8.30;5.82;;;;;;;15.54;69.86;101046.19;4968278;29;20055;-79
2021/07/21 05:36:51;;;;;;;9.95;5.70;;;;;;;15.59;69.70;101048.63;4948789;29;20088;-80
2021/07/21 05:39:17;;;;;;;9.73;5.32;;;;;;;15.62;69.44;101045.78;4963283;29;20490;-80
2021/07/21 05:41:46;;;;;;;8.00;5.85;;;;;;;15.73;69.38;101060.25;4944186;29;20047;-80
2021/07/21 05:44:16;;;;;;;10.35;5.70;;;;;;;15.83;68.96;101067.72;4979171;28;20051;-80
2021/07/21 05:46:43;;;;;;;11.25;5.28;;;;;;;15.91;68.60;101066.31;4979539;28;20125;-81
2021/07/21 05:49:13;;;;;;;7.55;5.32;;;;;;;15.96;68.66;101061.56;4965701;28;20426;-80
2021/07/21 05:51:39;;;;;;;9.77;6.25;;;;;;;16.04;68.10;101062.00;4968400;28;20051;-80
2021/07/21 05:54:07;;;;;;;9.20;5.30;;;;;;;16.11;67.11;101068.69;4965954;28;20047;-80
2021/07/21 05:56:34;;;;;;;9.48;5.63;;;;;;;16.13;67.58;101064.09;4966685;28;20662;-80
2021/07/21 05:59:05;;;;;;;8.65;5.45;;;;;;;16.20;67.54;101063.75;4965785;29;20055;-80
2021/07/21 06:01:35;;;;;;;11.25;5.88;;;;;;;16.33;67.52;101067.41;4965499;28;20050;-80
2021/07/21 06:04:05;;;;;;;8.05;5.28;;;;;;;16.44;68.31;101063.13;4965443;28;20115;-80
2021/07/21 06:06:33;;;;;;;7.88;4.93;;;;;;;16.43;67.13;101064.06;4965071;28;20070;-80
2021/07/21 06:09:02;;;;;;;9.63;5.55;;;;;;;16.45;67.33;101066.66;4965852;28;20051;-81
2021/07/21 06:11:29;;;;;;;13.40;5.85;;;;;;;16.48;66.97;101064.66;4955525;28;20055;-80
2021/07/21 06:14:00;;;;;;;13.55;5.60;;;;;;;16.59;67.42;101066.66;4973717;28;20062;-81
2021/07/21 06:16:28;;;;;;;9.27;5.15;;;;;;;16.71;65.76;101073.09;4967377;28;20093;-81
2021/07/21 06:18:57;;;;;;;7.20;5.22;;;;;;;16.93;65.27;101075.31;4965694;29;20051;-80
2021/07/21 06:21:32;;;;;;;8.45;4.70;;;;;;;17.30;63.59;101080.06;4965602;29;20082;-79
2021/07/21 06:23:59;;;;;;;7.40;4.72;;;;;;;17.74;61.27;101074.53;4970278;29;20047;-80
2021/07/21 06:26:26;;;;;;;8.02;4.82;;;;;;;18.29;60.38;101076.16;4964385;29;20051;-80
2021/07/21 06:28:55;;;;;;;7.10;4.10;;;;;;;18.86;58.24;101079.38;4963599;29;20051;-80
2021/07/21 06:31:22;;;;;;;6.53;4.07;;;;;;;19.39;55.88;101087.22;4963938;29;20110;-80
2021/07/21 06:33:51;;;;;;;9.25;4.50;;;;;;;19.74;55.23;101085.50;4965486;29;20621;-81
2021/07/21 06:36:22;;;;;;;7.38;4.45;;;;;;;20.13;53.05;101084.38;4966803;29;20043;-80
2021/07/21 06:38:48;;;;;;;;;;;;;;;20.30;52.83;101086.59;4966843;29;20166;-80
2021/07/21 06:41:20;;;;;;;6.55;4.63;;;;;;;20.40;52.05;101097.56;4973052;28;20390;-80
2021/07/21 06:43:52;;;;;;;7.05;3.92;;;;;;;20.63;50.67;101095.75;4962619;28;20110;-81
2021/07/21 06:46:22;;;;;;;7.32;4.05;;;;;;;20.88;50.03;101102.78;4964407;29;20070;-80
2021/07/21 06:48:49;;;;;;;4.70;4.05;;;;;;;21.01;49.69;101095.47;4967560;28;20062;-79
2021/07/21 06:51:20;;;;;;;5.80;3.95;;;;;;;21.23;51.22;101094.63;4956325;29;20118;-80
2021/07/21 06:53:48;;;;;;;6.68;3.80;;;;;;;21.47;48.93;101091.78;4963965;28;20106;-80
2021/07/21 06:56:15;;;;;;;7.00;4.18;;;;;;;21.36;50.83;101098.06;4964186;28;20043;-81
2021/07/21 06:58:43;;;;;;;4.93;4.00;;;;;;;21.58;49.85;101100.69;4966038;28;20080;-82
2021/07/21 07:01:10;;;;;;;6.03;3.88;;;;;;;21.79;49.57;101098.09;4972092;28;20126;-79
2021/07/21 07:03:37;;;;;;;6.45;3.72;;;;;;;21.94;47.40;101102.19;4971266;28;20055;-80
2021/07/21 07:06:07;;;;;;;5.55;4.15;;;;;;;21.60;48.08;101104.13;4960665;28;20063;-80
2021/07/21 07:08:35;;;;;;;8.43;4.03;;;;;;;21.52;49.14;101108.44;4964989;28;20047;-80
2021/07/21 07:11:24;;;;;;;6.20;4.03;;;;;;;21.43;48.93;101104.66;4963302;29;20043;-79
2021/07/21 07:13:50;;;;;;;5.32;4.10;;;;;;;21.26;49.58;101105.16;4965588;28;20082;-79
2021/07/21 07:16:17;;;;;;;9.05;3.70;;;;;;;21.52;49.36;101105.75;4965881;28;20075;-79
2021/07/21 07:18:44;;;;;;;5.00;3.67;;;;;;;21.59;48.40;101101.56;4981510;28;20078;-81
2021/07/21 07:21:11;;;;;;;5.90;3.90;;;;;;;21.70;47.93;101110.50;4968668;28;20131;-79
2021/07/21 07:23:39;;;;;;;7.50;4.10;;;;;;;21.69;47.68;101113.31;4948802;29;20131;-79
2021/07/21 07:26:05;;;;;;;6.53;3.80;;;;;;;21.59;48.27;101120.41;4970427;28;20091;-80
2021/07/21 07:28:34;;;;;;;5.75;3.65;;;;;;;21.72;48.30;101118.47;4987779;28;20074;-79
2021/07/21 07:31:01;;;;;;;8.50;3.92;;;;;;;21.97;48.51;101109.19;4957622;28;20043;-80
2021/07/21 07:33:29;;;;;;;5.85;3.58;;;;;;;22.25;48.29;101111.31;4978536;28;20063;-80
2021/07/21 07:35:56;;;;;;;5.00;3.75;;;;;;;22.21;47.55;101111.69;4971339;28;20082;-80
2021/07/21 07:38:22;;;;;;;7.78;4.07;;;;;;;22.32;47.66;101108.97;4976678;28;20070;-79
2021/07/21 07:40:52;;;;;;;8.15;4.18;;;;;;;22.45;45.31;101106.91;4986374;28;20130;-79
2021/07/21 07:43:20;;;;;;;5.38;4.15;;;;;;;22.44;46.30;101109.75;4978354;28;20035;-80
2021/07/21 07:45:47;;;;;;;6.95;4.00;;;;;;;22.59;46.04;101109.28;4985282;28;20074;-80
2021/07/21 07:48:15;;;;;;;7.43;3.92;;;;;;;22.77;46.37;101106.88;4974188;28;20047;-80
2021/07/21 07:50:42;;;;;;;7.28;3.92;;;;;;;22.90;45.78;101101.25;4962969;29;20031;-80
2021/07/21 07:53:10;;;;;;;6.10;3.65;;;;;;;22.90;44.04;101101.25;4950033;29;20510;-80
2021/07/21 07:55:43;;;;;;;6.55;3.80;;;;;;;22.92;43.71;101086.63;4956090;28;20050;-80
2021/07/21 07:58:18;;;;;;;6.82;3.70;;;;;;;22.85;44.91;101095.41;4960197;29;20047;-80
2021/07/21 08:00:50;;;;;;;10.00;3.75;;;;;;;22.80;43.71;101089.56;4975545;28;20031;-79
2021/07/21 08:03:19;;;;;;;5.50;3.75;;;;;;;22.70;44.24;101086.75;4973843;29;20054;-80
2021/07/21 08:05:55;;;;;;;5.03;3.72;;;;;;;22.77;44.54;101084.44;4979016;28;20166;-79
2021/07/21 08:08:26;;;;;;;5.95;3.53;;;;;;;23.02;44.31;101084.81;4978027;28;20074;-80
2021/07/21 08:10:55;;;;;;;4.93;3.78;;;;;;;23.08;43.74;101083.44;4975267;28;20107;-80
2021/07/21 08:13:24;;;;;;;7.07;3.55;;;;;;;23.31;44.00;101084.06;4976916;28;20039;-80
2021/07/21 08:16:00;;;;;;;5.53;3.67;;;;;;;23.42;43.27;101081.28;5054822;23;20037;-80
2021/07/21 08:18:29;;;;;;;5.88;3.70;;;;;;;23.48;43.78;101079.88;5036946;28;20038;-81
2021/07/21 08:20:56;;;;;;;4.93;3.75;;;;;;;23.50;42.87;101086.00;5036855;28;20072;-80
2021/07/21 08:23:23;;;;;;;7.10;3.55;;;;;;;23.58;42.62;101083.50;5035200;28;20059;-81
2021/07/21 08:25:51;;;;;;;5.90;3.83;;;;;;;23.64;42.45;101078.38;5038904;28;20109;-81
2021/07/21 08:28:18;;;;;;;6.20;3.75;;;;;;;23.65;42.21;101082.78;5019816;28;20072;-82
2021/07/21 08:30:47;;;;;;;4.75;3.53;;;;;;;23.45;40.04;101079.16;5020376;28;20048;-83
2021/07/21 08:33:14;;;;;;;9.13;3.67;;;;;;;23.36;42.07;101079.13;5043963;28;20029;-81
2021/07/21 08:35:44;;;;;;;10.93;3.90;;;;;;;23.04;41.67;101087.41;5017502;28;20042;-80
2021/07/21 08:38:22;;;;;;;6.30;4.07;;;;;;;22.96;41.92;101085.38;5023943;28;20118;-81
2021/07/21 08:40:55;;;;;;;6.78;3.35;;;;;;;22.78;41.99;101087.00;5032015;28;20049;-81
2021/07/21 08:43:31;;;;;;;6.22;3.50;;;;;;;22.66;41.34;101080.78;5027348;28;20110;-81
2021/07/21 08:46:00;;;;;;;5.40;3.50;;;;;;;22.59;42.23;101093.09;5032127;28;20050;-82
2021/07/21 08:48:27;;;;;;;6.30;3.60;;;;;;;22.74;42.78;101078.25;5031034;28;20068;-81
2021/07/21 08:50:54;;;;;;;6.05;3.83;;;;;;;22.97;41.82;101088.94;5023993;28;20129;-81
2021/07/21 08:53:21;;;;;;;4.82;3.75;;;;;;;22.82;41.02;101085.75;5026803;28;20045;-81
2021/07/21 08:55:50;;;;;;;4.22;3.22;;;;;;;22.80;41.94;101082.31;5024752;28;20061;-81
2021/07/21 08:58:19;;;;;;;4.07;3.22;;;;;;;22.84;41.68;101075.63;5030825;28;20064;-81
2021/07/21 09:00:51;;;;;;;3.83;3.15;;;;;;;22.71;41.88;101080.38;5040141;28;20058;-81
2021/07/21 09:03:21;;;;;;;6.00;3.58;;;;;;;22.61;42.98;101082.16;5013882;28;20034;-81
2021/07/21 09:05:53;;;;;;;5.57;3.53;;;;;;;22.68;42.52;101077.94;5031814;28;20054;-81
2021/07/21 09:08:20;;;;;;;6.45;4.10;;;;;;;22.68;42.43;101084.19;5022172;28;20129;-81
2021/07/21 09:10:49;;;;;;;5.05;3.33;;;;;;;22.72;42.76;101072.13;5022605;28;20065;-80
2021/07/21 09:13:18;;;;;;;4.43;3.28;;;;;;;22.88;42.87;101087.03;5011065;28;20070;-81
2021/07/21 09:15:48;;;;;;;4.18;3.28;;;;;;;23.02;42.09;101090.22;4936699;28;2530527;-82
2021/07/21 09:18:22;;;;;;;4.60;2.78;;;;;;;23.02;41.06;101083.97;5032870;28;20052;-81
2021/07/21 09:20:57;;;;;;;4.57;3.35;;;;;;;23.06;41.33;101085.41;5038205;28;20037;-82
2021/07/21 09:23:39;;;;;;;3.97;3.03;;;;;;;22.92;40.75;101080.38;5032884;28;20114;-81
2021/07/21 09:26:08;;;;;;;5.05;3.30;;;;;;;22.87;41.00;101079.91;5031510;28;20076;-82
2021/07/21 09:28:40;;;;;;;5.97;3.28;;;;;;;22.72;40.58;101079.38;5020282;28;20261;-82
2021/07/21 09:31:13;;;;;;;4.53;3.28;;;;;;;22.67;41.70;101078.91;5016718;28;20560;-82
2021/07/21 09:33:43;;;;;;;4.90;3.20;;;;;;;22.69;41.51;101075.09;5021699;28;20077;-82
2021/07/21 09:36:19;;;;;;;5.22;3.17;;;;;;;22.58;40.79;101069.78;5006392;28;20113;-82
2021/07/21 09:38:51;;;;;;;4.72;3.00;;;;;;;22.56;42.63;101071.75;5002537;28;20394;-81
2021/07/21 09:41:18;;;;;;;4.35;3.40;;;;;;;22.48;42.55;101081.53;5027050;28;20093;-81
2021/07/21 09:43:45;;;;;;;4.20;3.22;;;;;;;22.31;43.02;101080.25;5033511;28;20072;-81
2021/07/21 09:46:14;;;;;;;5.63;3.65;;;;;;;22.28;43.87;101078.69;5009706;28;20045;-80
2021/07/21 09:48:45;;;;;;;4.82;3.40;;;;;;;22.42;41.38;101085.59;5016984;28;20060;-80
2021/07/21 09:51:34;;;;;;;6.60;3.35;;;;;;;22.35;41.55;101068.22;5018301;28;20670;-80
2021/07/21 09:54:15;;;;;;;4.13;3.08;;;;;;;22.42;42.13;101080.19;5006918;28;20046;-81
2021/07/21 09:56:46;;;;;;;5.55;3.20;;;;;;;22.27;42.47;101082.34;5020992;28;20429;-82
2021/07/21 09:59:30;;;;;;;4.47;3.42;;;;;;;22.26;42.81;101079.78;5006704;28;20054;-82
2021/07/21 10:01:57;;;;;;;4.15;3.03;;;;;;;22.38;42.83;101081.44;5022308;28;20085;-82
2021/07/21 10:04:38;;;;;;;3.92;2.78;;;;;;;22.51;43.00;101073.16;5035132;28;20069;-81
2021/07/21 10:07:39;;;;;;;6.10;3.00;;;;;;;22.57;41.87;101084.28;5031123;28;20451;-81
2021/07/21 10:10:17;;;;;;;4.35;3.22;;;;;;;22.59;42.35;101084.13;5027570;28;20042;-81
2021/07/21 10:13:01;;;;;;;4.20;2.97;;;;;;;22.72;41.18;101076.69;5023773;28;20117;-81
2021/07/21 10:15:28;;;;;;;6.25;3.30;;;;;;;22.77;41.12;101077.19;5031434;28;20042;-82
2021/07/21 10:18:15;;;;;;;4.93;3.17;;;;;;;22.78;40.45;101086.13;5037508;28;20050;-81
2021/07/21 10:20:46;;;;;;;5.07;3.23;;;;;;;22.77;40.76;101069.09;5019774;28;20062;-82
2021/07/21 10:23:15;;;;;;;6.30;3.40;;;;;;;22.75;40.60;101065.63;5020918;28;20137;-82
2021/07/21 10:25:45;;;;;;;4.28;3.15;;;;;;;22.84;40.01;101058.56;5020439;28;20417;-81
2021/07/21 10:28:11;;;;;;;5.63;3.10;;;;;;;22.86;39.84;101070.09;5019975;28;20050;-81
2021/07/21 10:30:39;;;;;;;7.28;3.47;;;;;;;22.69;39.37;101067.00;5020236;28;20046;-82
2021/07/21 10:33:07;;;;;;;5.35;2.72;;;;;;;22.64;39.47;101069.28;5025935;28;20072;-81
2021/07/21 10:35:34;;;;;;;4.85;3.00;;;;;;;22.73;39.87;101065.75;5024651;28;20045;-82
2021/07/21 10:38:01;;;;;;;5.20;3.10;;;;;;;22.81;39.65;101069.69;5020840;28;20859;-80
2021/07/21 10:40:32;;;;;;;4.05;2.70;;;;;;;22.80;39.13;101059.88;5020751;28;20128;-81
2021/07/21 10:43:00;;;;;;;3.20;2.85;;;;;;;22.88;38.92;101060.03;5027664;28;20088;-81
2021/07/21 10:45:33;;;;;;;5.25;3.13;;;;;;;23.04;39.62;101065.78;5024154;28;20133;-81
2021/07/21 10:48:20;;;;;;;4.43;2.72;;;;;;;23.23;39.05;101060.47;5017023;28;20061;-82
2021/07/21 10:59:15;;;;;;;5.03;3.05;;;;;;;23.38;38.28;101045.56;5022941;28;20065;-82
2021/07/21 11:01:52;;;;;;;3.20;2.75;;;;;;;23.61;38.14;101048.06;5027851;28;20049;-81
2021/07/21 11:04:22;;;;;;;5.72;3.33;;;;;;;23.72;38.14;101051.50;5020183;28;20058;-81
2021/07/21 11:06:51;;;;;;;5.30;3.03;;;;;;;23.79;37.51;101054.47;5026853;28;20124;-82
2021/07/21 11:09:25;;;;;;;3.08;2.78;;;;;;;23.79;37.45;101051.78;5016150;28;20145;-82
2021/07/21 11:11:57;;;;;;;3.92;2.75;;;;;;;23.80;37.09;101048.06;5041381;28;20076;-79
2021/07/21 11:14:31;;;;;;;5.45;2.90;;;;;;;23.86;37.21;101042.13;5027515;28;20078;-80
2021/07/21 11:17:06;;;;;;;4.45;2.83;;;;;;;23.93;36.58;101047.78;5035215;28;20057;-81
2021/07/21 11:19:39;;;;;;;7.03;2.85;;;;;;;23.86;35.79;101035.84;5018097;28;20160;-81
2021/07/21 11:22:19;;;;;;;4.90;3.10;;;;;;;23.79;36.44;101041.81;5019950;28;20129;-81
2021/07/21 11:25:01;;;;;;;4.22;2.65;;;;;;;23.82;37.31;101045.22;5029039;28;20117;-81
2021/07/21 11:28:03;;;;;;;4.80;3.22;;;;;;;23.90;37.12;101043.53;5025286;28;20080;-81
2021/07/21 11:30:45;;;;;;;4.50;3.13;;;;;;;23.89;37.23;101033.72;5026549;28;20100;-81
2021/07/21 11:33:54;;;;;;;4.10;3.20;;;;;;;23.91;37.40;101028.16;5021027;28;20193;-82
2021/07/21 11:36:45;;;;;;;5.10;3.35;;;;;;;24.00;37.51;101038.13;5023019;28;20525;-81
2021/07/21 11:39:42;;;;;;;3.63;3.10;;;;;;;24.12;37.28;101029.72;5004215;28;20053;-81
2021/07/21 11:42:30;;;;;;;4.78;2.95;;;;;;;24.35;37.03;101026.72;5023684;28;20068;-82
2021/07/21 11:45:06;;;;;;;5.13;3.25;;;;;;;24.47;36.81;101030.97;5027607;28;20472;-82
2021/07/21 11:47:41;;;;;;;6.85;3.03;;;;;;;24.53;35.81;101019.56;5014690;28;20052;-82
2021/07/21 11:50:17;;;;;;;4.25;3.10;;;;;;;24.64;35.36;101016.66;5024551;28;20054;-82
2021/07/21 11:52:50;;;;;;;3.30;2.80;;;;;;;24.66;34.64;101013.81;5021890;28;20053;-82